createdAt,value
2022-10-08T00:02:53.138Z,100269.13
2022-10-08T00:07:55.570Z,100262.05
2022-10-08T00:12:57.943Z,100247.75
2022-10-08T00:18:00.306Z,100240.50
2022-10-08T00:23:02.707Z,100232.56
2022-10-08T00:28:05.334Z,100218.72
2022-10-08T00:33:08.764Z,100214.27
2022-10-08T00:38:11.168Z,100208.35
2022-10-08T00:43:15.290Z,100199.36
2022-10-08T00:48:20.962Z,100190.84
2022-10-08T00:53:23.441Z,100181.95
2022-10-08T00:58:26.923Z,100180.27
2022-10-08T01:03:29.510Z,100178.34
2022-10-08T01:08:32.057Z,100172.94
2022-10-08T01:13:36.444Z,100161.69
2022-10-08T01:18:41.777Z,100156.80
2022-10-08T01:23:47.080Z,100151.00
2022-10-08T01:28:52.479Z,100144.27
2022-10-08T01:33:58.999Z,100137.59
2022-10-08T01:39:04.998Z,100131.88
2022-10-08T01:44:10.934Z,100132.43
2022-10-08T01:49:17.318Z,100130.20
2022-10-08T01:54:20.579Z,100133.91
2022-10-08T01:59:26.364Z,100129.55
2022-10-08T02:04:33.077Z,100121.52
2022-10-08T02:09:37.957Z,100120.59
2022-10-08T02:14:43.419Z,100115.08
2022-10-08T02:19:48.841Z,100110.55
2022-10-08T02:24:56.029Z,100111.14
2022-10-08T02:30:02.813Z,100106.41
2022-10-08T02:35:11.311Z,100103.77
2022-10-08T02:40:16.007Z,100103.74
2022-10-08T02:45:21.336Z,100094.38
2022-10-08T02:50:25.134Z,100087.05
2022-10-08T02:55:30.490Z,100093.27
2022-10-08T03:00:37.541Z,100089.92
2022-10-08T03:05:41.888Z,100086.45
2022-10-08T03:10:44.842Z,100082.58
2022-10-08T03:15:50.242Z,100088.86
2022-10-08T03:20:54.535Z,100087.14
2022-10-08T03:25:56.988Z,100088.09
2022-10-08T03:31:03.512Z,100087.48
2022-10-08T03:36:06.480Z,100081.34
2022-10-08T03:41:09.325Z,100074.48
2022-10-08T03:46:12.718Z,100070.88
2022-10-08T03:51:15.137Z,100061.06
2022-10-08T03:56:20.496Z,100064.68
2022-10-08T04:01:23.444Z,100066.65
2022-10-08T04:06:25.996Z,100066.02
2022-10-08T04:11:29.034Z,100065.71
2022-10-08T04:16:31.646Z,100064.27
2022-10-08T04:21:34.044Z,100058.58
2022-10-08T04:26:36.682Z,100060.40
2022-10-08T04:31:40.207Z,100057.63
2022-10-08T04:36:42.728Z,100048.48
2022-10-08T04:41:45.103Z,100041.67
2022-10-08T04:46:47.530Z,100049.51
2022-10-08T04:51:49.950Z,100051.55
2022-10-08T04:56:52.324Z,100049.26
2022-10-08T05:01:56.826Z,100048.91
2022-10-08T05:06:59.350Z,100046.63
2022-10-08T05:12:01.790Z,100054.31
2022-10-08T05:17:04.180Z,100051.85
2022-10-08T05:22:06.600Z,100053.16
2022-10-08T05:27:09.018Z,100046.64
2022-10-08T05:32:11.415Z,100049.23
2022-10-08T05:37:13.819Z,100057.42
2022-10-08T05:42:16.186Z,100058.02
2022-10-08T05:47:18.554Z,100064.33
2022-10-08T05:52:21.215Z,100063.33
2022-10-08T05:57:23.639Z,100068.41
2022-10-08T06:02:26.067Z,100071.19
2022-10-08T06:07:28.522Z,100071.36
2022-10-08T06:12:30.971Z,100064.55
2022-10-08T06:17:33.326Z,100082.86
2022-10-08T06:22:35.706Z,100084.48
2022-10-08T06:27:38.105Z,100073.55
2022-10-08T06:32:40.514Z,100066.46
2022-10-08T06:37:43.006Z,100077.27
2022-10-08T06:42:45.685Z,100091.17
2022-10-08T06:47:49.403Z,100096.02
2022-10-08T06:52:51.788Z,100080.23
2022-10-08T06:57:54.166Z,100078.69
2022-10-08T07:02:56.823Z,100077.23
2022-10-08T07:07:59.220Z,100075.95
2022-10-08T07:13:01.735Z,100077.42
2022-10-08T07:18:04.563Z,100088.81
2022-10-08T07:23:06.959Z,100079.33
2022-10-08T07:28:09.355Z,100079.33
2022-10-08T07:33:11.862Z,100080.95
2022-10-08T07:38:18.441Z,100080.30
2022-10-08T07:43:20.823Z,100083.61
2022-10-08T07:48:23.247Z,100086.52
2022-10-08T07:53:25.684Z,100088.40
2022-10-08T07:58:28.082Z,100091.92
2022-10-08T08:03:30.928Z,100086.81
2022-10-08T08:09:25.739Z,100078.96
2022-10-08T08:14:28.278Z,100072.15
2022-10-08T08:19:30.712Z,100075.73
2022-10-08T08:24:33.165Z,100079.80
2022-10-08T08:29:35.610Z,100081.61
2022-10-08T08:34:38.635Z,100076.25
2022-10-08T08:39:41.094Z,100060.16
2022-10-08T08:44:44.757Z,100055.16
2022-10-08T08:49:49.622Z,100061.04
2022-10-08T08:54:53.250Z,100066.06
2022-10-08T08:59:57.269Z,100059.61
2022-10-08T09:05:02.586Z,100071.16
2022-10-08T09:10:09.288Z,100056.98
2022-10-08T09:15:16.168Z,100060.02
2022-10-08T09:20:20.106Z,100059.43
2022-10-08T09:25:23.670Z,100054.10
2022-10-08T09:30:28.708Z,100046.25
2022-10-08T09:35:33.628Z,100042.08
2022-10-08T09:40:36.119Z,100047.23
2022-10-08T09:45:40.017Z,100036.70
2022-10-08T09:50:45.374Z,100026.55
2022-10-08T09:55:49.727Z,100024.23
2022-10-08T10:00:55.503Z,100021.35
2022-10-08T10:05:59.141Z,100016.61
2022-10-08T10:11:01.756Z,100016.08
2022-10-08T10:16:06.667Z,100016.05
2022-10-08T10:21:14.206Z,100019.01
2022-10-08T10:26:19.183Z,100021.88
2022-10-08T10:31:23.699Z,100017.80
2022-10-08T10:36:29.641Z,100006.60
2022-10-08T10:41:35.395Z,99989.25
2022-10-08T10:46:41.787Z,99985.11
2022-10-08T10:51:45.148Z,99972.48
2022-10-08T10:56:51.475Z,99967.59
2022-10-08T11:02:00.643Z,99969.22
2022-10-08T11:07:06.198Z,99980.50
2022-10-08T11:12:11.538Z,99970.79
2022-10-08T11:17:15.294Z,99965.80
2022-10-08T11:22:22.977Z,99954.99
2022-10-08T11:27:27.494Z,99947.73
2022-10-08T11:32:31.217Z,99943.67
2022-10-08T11:37:38.645Z,99943.20
2022-10-08T11:42:49.024Z,99932.52
2022-10-08T11:47:54.167Z,99934.30
2022-10-08T11:53:01.428Z,99933.98
2022-10-08T11:58:08.054Z,99933.73
2022-10-08T12:03:14.136Z,99926.98
2022-10-08T12:08:19.545Z,99921.48
2022-10-08T12:13:22.923Z,99909.72
2022-10-08T12:18:26.480Z,99903.73
2022-10-08T12:23:38.201Z,99896.13
2022-10-08T12:28:41.632Z,99881.55
2022-10-08T12:33:53.923Z,99877.33
2022-10-08T12:38:56.283Z,99877.59
2022-10-08T12:44:02.531Z,99877.40
2022-10-08T12:49:04.926Z,99876.95
2022-10-08T12:54:17.474Z,99882.17
2022-10-08T12:59:21.075Z,99881.79
2022-10-08T13:04:25.076Z,99873.89
2022-10-08T13:09:27.670Z,99881.72
2022-10-08T13:14:31.515Z,99879.16
2022-10-08T13:19:33.985Z,99880.83
2022-10-08T13:24:38.931Z,99878.89
2022-10-08T13:29:41.351Z,99876.67
2022-10-08T13:34:45.602Z,99870.46
2022-10-08T13:39:50.961Z,99866.79
2022-10-08T13:44:53.391Z,99873.65
2022-10-08T13:50:00.398Z,99881.95
2022-10-08T13:55:04.838Z,99882.56
2022-10-08T14:00:07.622Z,99885.75
2022-10-08T14:05:10.019Z,99883.73
2022-10-08T14:10:13.446Z,99880.08
2022-10-08T14:15:16.742Z,99890.74
2022-10-08T14:20:19.297Z,99887.58
2022-10-08T14:25:22.548Z,99890.69
2022-10-08T14:30:25.398Z,99897.11
2022-10-08T14:35:27.832Z,99897.61
2022-10-08T14:40:30.225Z,99902.41
2022-10-08T14:45:32.708Z,99908.88
2022-10-08T14:50:35.178Z,99905.44
2022-10-08T14:55:49.355Z,99909.98
2022-10-08T15:01:00.059Z,99906.71
2022-10-08T15:06:02.459Z,99899.91
2022-10-08T15:11:05.021Z,99903.16
2022-10-08T15:16:11.997Z,99907.45
2022-10-08T15:21:14.584Z,99907.98
2022-10-08T15:26:18.832Z,99917.48
2022-10-08T15:31:22.461Z,99917.95
2022-10-08T15:36:26.721Z,99922.77
2022-10-08T15:41:30.157Z,99925.52
2022-10-08T15:46:32.587Z,99921.64
2022-10-08T15:51:35.054Z,99924.21
2022-10-08T15:56:37.456Z,99928.40
2022-10-08T16:01:39.967Z,99930.23
2022-10-08T16:06:45.324Z,99932.63
2022-10-08T16:11:48.697Z,99935.20
2022-10-08T16:16:51.714Z,99940.02
2022-10-08T16:21:55.680Z,99945.51
2022-10-08T16:26:58.272Z,99953.89
2022-10-08T16:32:00.700Z,99960.46
2022-10-08T16:37:04.782Z,99959.83
2022-10-08T16:42:07.205Z,99961.60
2022-10-08T16:47:09.611Z,99970.16
2022-10-08T16:52:11.986Z,99973.92
2022-10-08T16:57:14.404Z,99980.37
2022-10-08T17:02:16.826Z,99981.66
2022-10-08T17:07:19.246Z,99982.60
2022-10-08T17:12:22.138Z,99985.83
2022-10-08T17:17:24.772Z,99987.13
2022-10-08T17:22:27.237Z,99996.38
2022-10-08T17:27:29.633Z,100001.64
2022-10-08T17:32:32.126Z,100013.02
2022-10-08T17:37:34.752Z,100014.27
2022-10-08T17:42:37.165Z,100015.21
2022-10-08T17:47:39.557Z,100014.14
2022-10-08T17:52:41.932Z,100010.67
2022-10-08T17:57:44.380Z,100013.45
2022-10-08T18:02:48.203Z,100016.27
2022-10-08T18:07:50.881Z,100013.34
2022-10-08T18:12:53.275Z,100014.48
2022-10-08T18:17:55.674Z,100018.92
2022-10-08T18:22:59.297Z,100027.27
2022-10-08T18:28:02.134Z,100035.59
2022-10-08T18:33:06.128Z,100043.13
2022-10-08T18:38:08.534Z,100043.96
2022-10-08T18:43:10.914Z,100056.20
2022-10-08T18:48:13.356Z,100060.06
2022-10-08T18:53:15.828Z,100066.61
2022-10-08T18:58:18.204Z,100070.34
2022-10-08T19:03:21.004Z,100081.64
2022-10-08T19:08:23.451Z,100083.02
2022-10-08T19:13:25.832Z,100092.55
2022-10-08T19:18:28.249Z,100100.75
2022-10-08T19:23:30.696Z,100108.34
2022-10-08T19:28:33.619Z,100110.58
2022-10-08T19:33:36.107Z,100118.13
2022-10-08T19:38:38.618Z,100131.50
2022-10-08T19:43:42.660Z,100137.50
2022-10-08T19:48:47.971Z,100143.55
2022-10-08T19:53:50.878Z,100147.00
2022-10-08T19:58:53.546Z,100148.53
2022-10-08T20:03:57.176Z,100152.02
2022-10-08T20:09:01.010Z,100149.27
2022-10-08T20:14:03.726Z,100148.58
2022-10-08T20:19:15.251Z,100145.84
2022-10-08T20:24:18.297Z,100162.81
2022-10-08T20:29:21.577Z,100176.98
2022-10-08T20:34:30.769Z,100178.84
2022-10-08T20:39:33.335Z,100185.03
2022-10-08T20:44:35.787Z,100181.05
2022-10-08T20:49:38.166Z,100186.16
2022-10-08T20:54:40.594Z,100192.27
2022-10-08T20:59:43.052Z,100187.85
2022-10-08T21:04:45.455Z,100192.41
2022-10-08T21:09:52.402Z,100193.25
2022-10-08T21:14:54.940Z,100191.58
2022-10-08T21:19:57.376Z,100199.59
2022-10-08T21:24:59.776Z,100197.47
2022-10-08T21:30:02.150Z,100203.57
2022-10-08T21:35:04.749Z,100202.67
2022-10-08T21:40:07.404Z,100206.06
2022-10-08T21:45:09.989Z,100211.42
2022-10-08T21:50:12.376Z,100215.52
2022-10-08T21:55:14.742Z,100208.67
2022-10-08T22:00:17.231Z,100213.80
2022-10-08T22:05:19.831Z,100214.19
2022-10-08T22:10:22.242Z,100219.82
2022-10-08T22:15:24.630Z,100225.71
2022-10-08T22:20:27.068Z,100227.23
2022-10-08T22:25:30.966Z,100234.02
2022-10-08T22:30:33.986Z,100237.77
2022-10-08T22:35:36.355Z,100242.02
2022-10-08T22:40:39.118Z,100240.55
2022-10-08T22:45:41.695Z,100242.40
2022-10-08T22:50:44.154Z,100238.27
2022-10-08T22:55:46.535Z,100243.54
2022-10-08T23:00:53.259Z,100256.11
2022-10-08T23:05:58.943Z,100261.41
2022-10-08T23:11:02.205Z,100264.64
2022-10-08T23:16:06.357Z,100265.64
2022-10-08T23:21:12.123Z,100274.85
2022-10-08T23:26:16.016Z,100283.97
2022-10-08T23:31:19.588Z,100281.63
2022-10-08T23:36:26.994Z,100291.35
2022-10-08T23:41:29.435Z,100292.67
2022-10-08T23:46:32.326Z,100301.30
2022-10-08T23:51:34.788Z,100311.77
2022-10-08T23:56:37.313Z,100312.17
